LZB441 LBSF-DTTA
Flight info
| Callsign | LZB441 |
|---|---|
| Flight time | N/A |
| Altitude | 36000 |
| Route | NAPET DCT LETNI DCT DOBAR DCT PAPIZ DCT ULKEN DCT PININ DCT SUSIP DCT SIRVI DCT TUC |
| Aircraft | A319/M-SDE3FGHIRWY/LB1 |
Departure
| Time | 2026-04-27 17:10 |
|---|---|
| Airport | Sofia Airport (LBSF) |
Arrival
| Time | N/A |
|---|---|
| Airport | Tunis Carthage International Airport (DTTA) |
| Time | Latitude | Longitude | Altitude | Speed | Heading |
|---|---|---|---|---|---|
| 2026-04-27 16:51 | 42.69043 | 23.40468 | 1749 ft | 0 kts | 196° |
| 2026-04-27 17:05 | 42.69042 | 23.40467 | 1749 ft | 0 kts | 196° |
| 2026-04-27 17:05 | 42.69036 | 23.40465 | 1749 ft | 2 kts | 196° |
| 2026-04-27 17:05 | 42.69023 | 23.40460 | 1745 ft | 4 kts | 197° |
| 2026-04-27 17:06 | 42.69009 | 23.40391 | 1744 ft | 8 kts | 285° |
| 2026-04-27 17:06 | 42.69030 | 23.40294 | 1749 ft | 13 kts | 286° |
| 2026-04-27 17:06 | 42.69058 | 23.40164 | 1749 ft | 15 kts | 286° |
| 2026-04-27 17:06 | 42.69089 | 23.40021 | 1748 ft | 17 kts | 286° |
| 2026-04-27 17:07 | 42.69114 | 23.39861 | 1748 ft | 18 kts | 286° |
| 2026-04-27 17:07 | 42.69149 | 23.39694 | 1742 ft | 19 kts | 286° |
| 2026-04-27 17:07 | 42.69197 | 23.39547 | 1745 ft | 16 kts | 330° |
| 2026-04-27 17:07 | 42.69308 | 23.39552 | 1748 ft | 17 kts | 5° |
| 2026-04-27 17:08 | 42.69432 | 23.39567 | 1744 ft | 19 kts | 5° |
| 2026-04-27 17:08 | 42.69568 | 23.39583 | 1743 ft | 20 kts | 5° |
| 2026-04-27 17:08 | 42.69665 | 23.39592 | 1745 ft | 13 kts | 4° |
| 2026-04-27 17:08 | 42.69755 | 23.39610 | 1749 ft | 13 kts | 34° |
| 2026-04-27 17:09 | 42.69766 | 23.39750 | 1747 ft | 26 kts | 94° |
| 2026-04-27 17:09 | 42.69749 | 23.40020 | 1750 ft | 61 kts | 95° |
| 2026-04-27 17:09 | 42.69700 | 23.40845 | 1748 ft | 113 kts | 94° |
| 2026-04-27 17:09 | 42.69597 | 23.42644 | 1887 ft | 161 kts | 95° |
| 2026-04-27 17:10 | 42.69535 | 23.43645 | 2284 ft | 161 kts | 96° |
| 2026-04-27 17:10 | 42.69402 | 23.45181 | 2880 ft | 165 kts | 97° |
| 2026-04-27 17:10 | 42.69213 | 23.46734 | 3455 ft | 168 kts | 99° |
| 2026-04-27 17:10 | 42.68956 | 23.48281 | 4066 ft | 169 kts | 104° |
| 2026-04-27 17:11 | 42.68629 | 23.49816 | 4683 ft | 169 kts | 107° |
| 2026-04-27 17:11 | 42.66845 | 23.51939 | 5333 ft | 207 kts | 172° |
| 2026-04-27 17:11 | 42.65315 | 23.52125 | 5630 ft | 233 kts | 177° |
| 2026-04-27 17:12 | 42.61728 | 23.52417 | 6730 ft | 274 kts | 179° |
| 2026-04-27 17:12 | 42.59807 | 23.52569 | 7568 ft | 280 kts | 179° |
| 2026-04-27 17:12 | 42.57840 | 23.52729 | 8444 ft | 286 kts | 179° |
| 2026-04-27 17:13 | 42.55830 | 23.52811 | 9280 ft | 291 kts | 187° |
| 2026-04-27 17:13 | 42.53868 | 23.52277 | 10079 ft | 293 kts | 203° |
| 2026-04-27 17:13 | 42.51977 | 23.50980 | 10428 ft | 311 kts | 219° |
| 2026-04-27 17:13 | 42.50387 | 23.48900 | 10692 ft | 327 kts | 236° |
| 2026-04-27 17:14 | 42.49180 | 23.46255 | 11285 ft | 333 kts | 243° |
| 2026-04-27 17:14 | 42.47988 | 23.43525 | 11997 ft | 338 kts | 242° |
| 2026-04-27 17:14 | 42.46773 | 23.40778 | 12716 ft | 343 kts | 241° |
| 2026-04-27 17:14 | 42.45534 | 23.37992 | 13430 ft | 348 kts | 241° |
| 2026-04-27 17:15 | 42.44276 | 23.35169 | 14101 ft | 353 kts | 240° |
| 2026-04-27 17:15 | 42.43004 | 23.32318 | 14730 ft | 356 kts | 240° |
| 2026-04-27 17:15 | 42.41719 | 23.29432 | 15389 ft | 359 kts | 240° |
| 2026-04-27 17:15 | 42.40425 | 23.26524 | 16054 ft | 362 kts | 240° |
| 2026-04-27 17:16 | 42.39122 | 23.23595 | 16730 ft | 365 kts | 240° |
| 2026-04-27 17:16 | 42.37807 | 23.20646 | 17392 ft | 367 kts | 240° |
| 2026-04-27 17:16 | 42.36482 | 23.17676 | 18061 ft | 370 kts | 240° |
| 2026-04-27 17:16 | 42.35148 | 23.14685 | 18691 ft | 373 kts | 240° |
| 2026-04-27 17:17 | 42.33804 | 23.11671 | 19274 ft | 376 kts | 240° |
| 2026-04-27 17:17 | 42.32449 | 23.08636 | 19857 ft | 378 kts | 240° |
| 2026-04-27 17:17 | 42.31081 | 23.05585 | 20453 ft | 381 kts | 240° |
| 2026-04-27 17:18 | 42.28317 | 22.99429 | 21615 ft | 386 kts | 240° |
| 2026-04-27 17:18 | 42.26884 | 22.96334 | 22174 ft | 389 kts | 239° |
| 2026-04-27 17:18 | 42.25419 | 22.93255 | 22701 ft | 392 kts | 239° |
| 2026-04-27 17:18 | 42.23922 | 22.90153 | 23189 ft | 396 kts | 239° |
| 2026-04-27 17:19 | 42.22407 | 22.87023 | 23667 ft | 400 kts | 239° |
| 2026-04-27 17:19 | 42.20882 | 22.83869 | 24097 ft | 402 kts | 239° |
| 2026-04-27 17:19 | 42.19355 | 22.80699 | 24523 ft | 405 kts | 239° |
| 2026-04-27 17:19 | 42.17821 | 22.77505 | 24966 ft | 406 kts | 239° |
| 2026-04-27 17:20 | 42.16288 | 22.74303 | 25455 ft | 407 kts | 239° |
| 2026-04-27 17:20 | 42.14752 | 22.71095 | 25898 ft | 408 kts | 239° |
| 2026-04-27 17:20 | 42.13189 | 22.67841 | 26321 ft | 410 kts | 239° |
| 2026-04-27 17:20 | 42.11632 | 22.64607 | 26736 ft | 413 kts | 239° |
| 2026-04-27 17:21 | 42.10071 | 22.61347 | 27142 ft | 415 kts | 241° |
| 2026-04-27 17:21 | 42.08757 | 22.57903 | 27546 ft | 415 kts | 247° |
| 2026-04-27 17:21 | 42.07533 | 22.54371 | 27958 ft | 417 kts | 247° |
| 2026-04-27 17:21 | 42.06294 | 22.50826 | 28359 ft | 419 kts | 247° |
| 2026-04-27 17:22 | 42.05045 | 22.47267 | 28761 ft | 421 kts | 247° |
| 2026-04-27 17:22 | 42.03789 | 22.43691 | 29150 ft | 424 kts | 247° |
| 2026-04-27 17:22 | 42.02529 | 22.40104 | 29546 ft | 425 kts | 247° |
| 2026-04-27 17:22 | 42.01264 | 22.36504 | 29901 ft | 427 kts | 247° |
| 2026-04-27 17:23 | 41.99985 | 22.32865 | 30248 ft | 429 kts | 247° |
| 2026-04-27 17:23 | 41.98708 | 22.29234 | 30547 ft | 431 kts | 247° |
| 2026-04-27 17:23 | 41.97425 | 22.25589 | 30854 ft | 433 kts | 247° |
| 2026-04-27 17:23 | 41.96133 | 22.21922 | 31169 ft | 435 kts | 247° |
| 2026-04-27 17:24 | 41.94836 | 22.18252 | 31514 ft | 435 kts | 247° |
| 2026-04-27 17:24 | 41.93538 | 22.14597 | 31954 ft | 433 kts | 247° |
| 2026-04-27 17:24 | 41.92242 | 22.10958 | 32402 ft | 431 kts | 247° |
| 2026-04-27 17:24 | 41.90952 | 22.07335 | 32865 ft | 429 kts | 247° |
| 2026-04-27 17:25 | 41.89668 | 22.03728 | 33314 ft | 427 kts | 247° |
| 2026-04-27 17:25 | 41.88393 | 22.00142 | 33755 ft | 426 kts | 247° |
| 2026-04-27 17:25 | 41.87119 | 21.96563 | 34180 ft | 424 kts | 247° |
| 2026-04-27 17:25 | 41.85850 | 21.93000 | 34564 ft | 423 kts | 247° |
| 2026-04-27 17:26 | 41.84582 | 21.89444 | 34928 ft | 422 kts | 247° |
| 2026-04-27 17:26 | 41.83311 | 21.85894 | 35269 ft | 422 kts | 247° |
| 2026-04-27 17:26 | 41.82039 | 21.82348 | 35597 ft | 422 kts | 247° |
| 2026-04-27 17:26 | 41.80767 | 21.78806 | 35922 ft | 422 kts | 247° |
| 2026-04-27 17:27 | 41.79494 | 21.75264 | 36096 ft | 422 kts | 247° |
| 2026-04-27 17:27 | 41.78223 | 21.71727 | 36114 ft | 421 kts | 247° |
| 2026-04-27 17:27 | 41.75682 | 21.64673 | 36113 ft | 420 kts | 247° |
| 2026-04-27 17:28 | 41.73122 | 21.57596 | 36117 ft | 420 kts | 247° |
| 2026-04-27 17:29 | 41.69302 | 21.47061 | 36122 ft | 419 kts | 247° |
| 2026-04-27 17:29 | 41.66753 | 21.40048 | 36119 ft | 419 kts | 247° |
| 2026-04-27 17:30 | 41.64200 | 21.33030 | 36125 ft | 420 kts | 246° |
| 2026-04-27 17:30 | 41.60356 | 21.22522 | 36120 ft | 420 kts | 246° |
| 2026-04-27 17:31 | 41.57791 | 21.15527 | 36121 ft | 419 kts | 246° |
| 2026-04-27 17:31 | 41.55225 | 21.08530 | 36133 ft | 419 kts | 247° |
| 2026-04-27 17:32 | 41.51374 | 20.98054 | 36129 ft | 419 kts | 246° |
| 2026-04-27 17:33 | 41.48790 | 20.91080 | 36126 ft | 419 kts | 246° |
| 2026-04-27 17:33 | 41.46209 | 20.84127 | 36114 ft | 419 kts | 246° |
| 2026-04-27 17:34 | 41.43625 | 20.77161 | 36115 ft | 419 kts | 246° |
| 2026-04-27 17:34 | 41.41039 | 20.70215 | 36115 ft | 419 kts | 246° |
| 2026-04-27 17:35 | 41.38447 | 20.63269 | 36116 ft | 419 kts | 246° |
| 2026-04-27 17:35 | 41.35830 | 20.56283 | 36110 ft | 419 kts | 246° |
| 2026-04-27 17:36 | 41.33276 | 20.49386 | 36098 ft | 418 kts | 250° |
| 2026-04-27 17:36 | 41.31252 | 20.42164 | 36102 ft | 416 kts | 252° |
| 2026-04-27 17:37 | 41.29231 | 20.34902 | 36105 ft | 416 kts | 252° |
| 2026-04-27 17:37 | 41.27216 | 20.27689 | 36101 ft | 416 kts | 252° |